Aérodrome :







RETROUVEZ-NOUS SUR...

 
LOGIN :

S'inscrire | Disclaimer

   EN    FR    IT 

 









Légende :    VFR   VFR Marginal   IFR   IFR Intensif   IFR Très Intensif
Visi : 
Plafond : 
>= 8 km
>= 3000ft
5 à 8 km
1000 à 3000 ft
1500m à 5 km
500 à 1000 ft
800 à 1500m
200 à 500 ft
< 800m
< 200 ft
Symboles :   Orages  Brouillard  Fortes neiges  Fortes précipitations  Vent > 20 kt






- Altitude de l'aérodrome : 1166 ft


KMPV - Edward F Knapp State

DERNIER METAR :
  • 210751Z AUTO 33005KT 10SM BKN045 BKN090 M01/M03 A3013 RMK AO2 SLP218 T10111033

METARs EXPIRÉS :
  • 210651Z AUTO 33003KT 10SM BKN040 BKN060 OVC090 M01/M02 A3012 RMK AO2 SLP216 T10111022
  • 210551Z AUTO 32008KT 10SM OVC055 M01/M02 A3012 RMK AO2 SLP214 60000 T10061022 11006 21011 51002

TAF KMPV
Valide du 21 à 06h jusqu'au 22 à 06h UTC


210542Z 2106/2206 32006KT P6SM OVC050
FM211000 VRB03KT P6SM BKN040
FM211700 00000KT P6SM SCT120
FM220400 17006KT P6SM VCSH OVC060 WS020/23035KT



MET'MAP, la Météo Aéronautique d'un coup d'oeil ! - Copyright ORBIFLY Décembre 2007 - Disclaimer

ORBIFLY MET'MAP TEAM :

Programmation & Développement : Alexandra Zaïnal
Conception & Développement : Baudouin d'Aumeries
Co-Programmation & Développement : Marc-Olivier Méhu
Soutien technique & logistique : Manuel Goepfert

Contact : metmap@orbifly.com




SOURCES & CREDITS :

   NOAA